createdAt,value
2023-04-15T00:00:37.360Z,30.01
2023-04-15T00:03:06.377Z,30.24
2023-04-15T00:05:34.343Z,30.16
2023-04-15T00:08:02.868Z,30.43
2023-04-15T00:10:32.146Z,30.53
2023-04-15T00:13:00.051Z,30.18
2023-04-15T00:15:28.212Z,30.50
2023-04-15T00:17:56.063Z,30.46
2023-04-15T00:20:24.082Z,30.15
2023-04-15T00:22:52.308Z,30.28
2023-04-15T00:25:20.120Z,30.28
2023-04-15T00:27:49.615Z,30.69
2023-04-15T00:30:17.339Z,30.33
2023-04-15T00:32:45.180Z,30.59
2023-04-15T00:35:15.404Z,30.59
2023-04-15T00:37:44.850Z,30.92
2023-04-15T00:40:14.857Z,30.82
2023-04-15T00:42:42.643Z,31.04
2023-04-15T00:45:12.912Z,30.95
2023-04-15T00:47:43.279Z,30.96
2023-04-15T00:50:11.550Z,30.53
2023-04-15T00:52:39.840Z,30.98
2023-04-15T00:55:09.219Z,31.16
2023-04-15T00:57:37.467Z,31.00
2023-04-15T01:00:08.016Z,31.05
2023-04-15T01:02:37.628Z,31.15
2023-04-15T01:05:06.331Z,31.18
2023-04-15T01:07:34.198Z,31.33
2023-04-15T01:10:04.356Z,31.23
2023-04-15T01:12:34.266Z,31.43
2023-04-15T01:15:02.865Z,31.36
2023-04-15T01:17:31.174Z,31.21
2023-04-15T01:20:01.101Z,31.11
2023-04-15T01:22:31.506Z,31.53
2023-04-15T01:25:08.165Z,31.03
2023-04-15T01:27:40.932Z,31.58
2023-04-15T01:30:10.630Z,31.03
2023-04-15T01:32:39.153Z,31.04
2023-04-15T01:35:07.762Z,31.66
2023-04-15T01:37:35.910Z,31.19
2023-04-15T01:40:03.827Z,31.49
2023-04-15T01:42:32.946Z,31.45
2023-04-15T01:45:02.110Z,31.67
2023-04-15T01:47:30.104Z,31.76
2023-04-15T01:49:57.964Z,31.74
2023-04-15T01:52:26.126Z,31.57
2023-04-15T01:54:53.941Z,31.99
2023-04-15T01:57:21.977Z,31.94
2023-04-15T01:59:49.807Z,31.83
2023-04-15T02:02:19.007Z,31.50
2023-04-15T02:04:46.844Z,31.48
2023-04-15T02:07:14.595Z,31.77
2023-04-15T02:09:43.470Z,31.74
2023-04-15T02:12:11.345Z,32.09
2023-04-15T02:14:39.249Z,31.90
2023-04-15T02:17:08.492Z,31.60
2023-04-15T02:19:39.393Z,32.31
2023-04-15T02:22:09.248Z,32.29
2023-04-15T02:24:37.114Z,32.03
2023-04-15T02:27:05.037Z,31.90
2023-04-15T02:29:33.309Z,31.71
2023-04-15T02:32:02.164Z,32.21
2023-04-15T02:34:30.482Z,32.00
2023-04-15T02:37:00.101Z,31.99
2023-04-15T02:39:28.782Z,31.95
2023-04-15T02:41:56.873Z,32.53
2023-04-15T02:44:25.043Z,32.07
2023-04-15T02:46:58.317Z,32.45
2023-04-15T02:49:26.549Z,32.52
2023-04-15T02:51:55.404Z,32.40
2023-04-15T02:54:25.891Z,32.47
2023-04-15T02:56:55.331Z,32.43
2023-04-15T02:59:23.798Z,32.06
2023-04-15T03:01:51.648Z,32.16
2023-04-15T03:04:19.650Z,32.10
2023-04-15T03:06:47.568Z,32.17
2023-04-15T03:09:15.697Z,32.15
2023-04-15T03:11:46.002Z,32.78
2023-04-15T03:14:13.823Z,32.33
2023-04-15T03:16:45.307Z,32.31
2023-04-15T03:19:15.581Z,32.65
2023-04-15T03:21:44.544Z,32.29
2023-04-15T03:24:12.489Z,32.61
2023-04-15T03:26:40.439Z,32.79
2023-04-15T03:29:15.177Z,32.69
2023-04-15T03:31:43.268Z,32.34
2023-04-15T03:34:12.020Z,32.34
2023-04-15T03:36:39.809Z,32.39
2023-04-15T03:39:08.041Z,32.48
2023-04-15T03:41:36.103Z,32.51
2023-04-15T03:44:03.907Z,32.94
2023-04-15T03:46:33.260Z,32.76
2023-04-15T03:49:01.292Z,32.80
2023-04-15T03:51:29.318Z,32.78
2023-04-15T03:54:00.226Z,32.72
2023-04-15T03:56:28.154Z,32.86
2023-04-15T03:58:56.144Z,32.76
2023-04-15T04:01:24.029Z,32.79
2023-04-15T04:03:53.339Z,32.70
2023-04-15T04:06:21.541Z,33.16
2023-04-15T04:08:49.297Z,32.60
2023-04-15T04:11:17.277Z,32.71
2023-04-15T04:13:45.154Z,32.75
2023-04-15T04:16:13.131Z,32.97
2023-04-15T04:18:40.956Z,33.03
2023-04-15T04:21:10.228Z,33.16
2023-04-15T04:23:38.147Z,33.08
2023-04-15T04:26:06.159Z,32.95
2023-04-15T04:28:35.397Z,32.91
2023-04-15T04:31:03.342Z,33.06
2023-04-15T04:33:31.124Z,32.93
2023-04-15T04:36:01.855Z,33.24
2023-04-15T04:38:31.049Z,33.03
2023-04-15T04:40:58.936Z,33.00
2023-04-15T04:43:27.044Z,33.09
2023-04-15T04:45:57.326Z,33.52
2023-04-15T04:48:25.116Z,33.63
2023-04-15T04:50:55.991Z,33.14
2023-04-15T04:53:23.770Z,33.75
2023-04-15T04:55:53.049Z,33.67
2023-04-15T04:58:21.363Z,33.23
2023-04-15T05:00:49.157Z,33.21
2023-04-15T05:03:17.420Z,33.63
2023-04-15T05:05:48.750Z,33.36
2023-04-15T05:08:18.225Z,33.77
2023-04-15T05:10:46.037Z,33.53
2023-04-15T05:13:15.471Z,33.88
2023-04-15T05:15:43.348Z,33.77
2023-04-15T05:18:11.155Z,33.76
2023-04-15T05:20:39.394Z,33.43
2023-04-15T05:23:07.270Z,33.52
2023-04-15T05:25:37.157Z,33.83
2023-04-15T05:28:04.882Z,33.79
2023-04-15T05:30:34.212Z,33.84
2023-04-15T05:33:02.101Z,34.10
2023-04-15T05:35:29.875Z,33.92
2023-04-15T05:37:57.815Z,34.11
2023-04-15T05:40:27.465Z,33.98
2023-04-15T05:42:55.451Z,34.35
2023-04-15T05:45:23.213Z,34.15
2023-04-15T05:47:54.386Z,34.39
2023-04-15T05:50:22.298Z,34.79
2023-04-15T05:52:50.284Z,34.50
2023-04-15T05:55:18.160Z,34.64
2023-04-15T05:57:45.906Z,34.69
2023-04-15T06:00:15.307Z,34.71
2023-04-15T06:02:43.449Z,35.10
2023-04-15T06:05:12.937Z,35.21
2023-04-15T06:07:41.093Z,35.12
2023-04-15T06:10:09.873Z,35.31
2023-04-15T06:12:37.670Z,35.21
2023-04-15T06:15:06.681Z,34.95
2023-04-15T06:17:34.531Z,35.05
2023-04-15T06:20:02.505Z,35.41
2023-04-15T06:22:31.696Z,34.92
2023-04-15T06:24:59.625Z,34.92
2023-04-15T06:27:27.389Z,34.91
2023-04-15T06:29:55.164Z,35.13
2023-04-15T06:32:22.955Z,35.43
2023-04-15T06:34:50.730Z,35.22
2023-04-15T06:37:18.692Z,35.40
2023-04-15T06:39:47.888Z,35.38
2023-04-15T06:42:16.156Z,35.19
2023-04-15T06:44:44.089Z,35.25
2023-04-15T06:47:13.059Z,35.44
2023-04-15T06:49:41.291Z,35.42
2023-04-15T06:52:09.317Z,36.15
2023-04-15T06:54:37.132Z,36.16
2023-04-15T06:57:07.091Z,35.72
2023-04-15T06:59:34.879Z,36.19
2023-04-15T07:02:02.834Z,36.09
2023-04-15T07:04:30.772Z,36.11
2023-04-15T07:07:00.022Z,36.47
2023-04-15T07:09:27.817Z,36.55
2023-04-15T07:11:55.730Z,36.13
2023-04-15T07:14:25.092Z,36.31
2023-04-15T07:16:52.999Z,36.54
2023-04-15T07:19:20.992Z,36.39
2023-04-15T07:21:49.017Z,36.02
2023-04-15T07:24:18.236Z,36.01
2023-04-15T07:26:46.334Z,35.43
2023-04-15T07:29:14.129Z,35.56
2023-04-15T07:31:43.378Z,35.19
2023-04-15T07:34:11.149Z,35.28
2023-04-15T07:36:38.920Z,35.22
2023-04-15T07:39:06.779Z,35.18
2023-04-15T07:41:34.766Z,35.40
2023-04-15T07:44:04.320Z,35.57
2023-04-15T07:46:32.202Z,35.66
2023-04-15T07:49:01.847Z,34.91
2023-04-15T07:51:30.851Z,35.19
2023-04-15T07:53:58.716Z,35.23
2023-04-15T07:56:27.128Z,34.89
2023-04-15T07:58:54.920Z,35.24
2023-04-15T08:01:22.757Z,34.75
2023-04-15T08:03:50.893Z,35.10
2023-04-15T08:06:20.184Z,34.74
2023-04-15T08:08:48.329Z,35.00
2023-04-15T08:11:16.881Z,35.00
2023-04-15T08:13:44.750Z,34.88
2023-04-15T08:16:19.691Z,34.43
2023-04-15T08:18:47.778Z,34.96
2023-04-15T08:21:16.223Z,34.87
2023-04-15T08:23:45.964Z,34.86
2023-04-15T08:26:14.297Z,34.66
2023-04-15T08:28:43.746Z,34.70
2023-04-15T08:31:11.604Z,35.08
2023-04-15T08:33:39.437Z,34.91
2023-04-15T08:36:07.786Z,34.85
2023-04-15T08:38:36.195Z,34.26
2023-04-15T08:41:08.748Z,34.63
2023-04-15T08:43:39.677Z,34.80
2023-04-15T08:46:08.482Z,34.55
2023-04-15T08:48:40.420Z,34.32
2023-04-15T08:51:09.518Z,34.76
2023-04-15T08:53:38.638Z,34.74
2023-04-15T08:56:10.674Z,34.18
2023-04-15T08:58:39.305Z,34.58
2023-04-15T09:01:07.278Z,34.02
2023-04-15T09:03:36.295Z,34.05
2023-04-15T09:06:05.711Z,34.71
2023-04-15T09:08:34.480Z,34.70
2023-04-15T09:11:02.985Z,34.14
2023-04-15T09:13:32.330Z,34.33
2023-04-15T09:16:03.623Z,34.49
2023-04-15T09:18:33.550Z,34.26
2023-04-15T09:21:09.077Z,33.96
2023-04-15T09:23:37.774Z,34.29
2023-04-15T09:26:06.349Z,34.64
2023-04-15T09:28:42.685Z,34.49
2023-04-15T09:31:11.415Z,34.75
2023-04-15T09:33:56.772Z,34.48
2023-04-15T09:36:25.192Z,34.62
2023-04-15T09:38:57.278Z,33.88
2023-04-15T09:41:26.612Z,34.08
2023-04-15T09:43:55.976Z,33.83
2023-04-15T09:46:42.311Z,33.58
2023-04-15T09:49:11.299Z,33.92
2023-04-15T09:51:39.548Z,34.20
2023-04-15T09:54:07.407Z,34.28
2023-04-15T09:56:37.774Z,34.13
2023-04-15T09:59:07.672Z,33.35
2023-04-15T10:01:36.146Z,33.70
2023-04-15T10:04:05.567Z,33.93
2023-04-15T10:06:34.818Z,33.88
2023-04-15T10:09:03.301Z,33.44
2023-04-15T10:11:32.893Z,34.06
2023-04-15T10:14:02.304Z,33.48
2023-04-15T10:16:33.999Z,33.40
2023-04-15T10:19:04.453Z,33.41
2023-04-15T10:21:33.656Z,33.79
2023-04-15T10:24:03.284Z,33.72
2023-04-15T10:26:31.717Z,33.21
2023-04-15T10:29:01.216Z,33.20
2023-04-15T10:31:31.747Z,32.73
2023-04-15T10:34:04.197Z,32.60
2023-04-15T10:36:32.174Z,32.79
2023-04-15T10:38:59.941Z,32.44
2023-04-15T10:41:31.089Z,32.33
2023-04-15T10:44:03.416Z,32.25
2023-04-15T10:46:39.541Z,32.30
2023-04-15T10:49:12.126Z,32.51
2023-04-15T10:51:42.499Z,32.17
2023-04-15T10:54:14.850Z,32.42
2023-04-15T10:56:44.033Z,32.31
2023-04-15T10:59:12.284Z,32.52
2023-04-15T11:01:56.505Z,32.50
2023-04-15T11:04:53.543Z,32.85
2023-04-15T11:07:42.097Z,32.76
2023-04-15T11:10:54.957Z,33.01
2023-04-15T11:13:28.353Z,32.84
2023-04-15T11:16:01.717Z,32.43
2023-04-15T11:18:32.951Z,32.45
2023-04-15T11:21:03.534Z,32.83
2023-04-15T11:23:37.197Z,33.15
2023-04-15T11:26:09.312Z,32.85
2023-04-15T11:28:39.028Z,33.33
2023-04-15T11:31:10.725Z,33.23
2023-04-15T11:33:47.054Z,33.26
2023-04-15T11:36:15.013Z,33.10
2023-04-15T11:38:48.195Z,32.82
2023-04-15T11:41:16.627Z,32.88
2023-04-15T11:43:44.445Z,33.00
2023-04-15T11:46:12.404Z,33.20
2023-04-15T11:48:44.692Z,33.18
2023-04-15T11:51:13.321Z,32.97
2023-04-15T11:53:43.040Z,32.96
2023-04-15T11:56:12.976Z,32.99
2023-04-15T11:58:40.959Z,33.18
2023-04-15T12:01:08.861Z,33.19
2023-04-15T12:03:44.287Z,32.96
2023-04-15T12:06:19.061Z,32.84
2023-04-15T12:08:57.158Z,33.25
2023-04-15T12:11:31.250Z,33.19
2023-04-15T12:14:03.983Z,33.02
2023-04-15T12:16:32.323Z,33.77
2023-04-15T12:19:02.435Z,33.47
2023-04-15T12:21:35.877Z,33.32
2023-04-15T12:24:05.344Z,32.73
2023-04-15T12:26:38.195Z,33.37
2023-04-15T12:29:07.042Z,33.78
2023-04-15T12:31:35.712Z,33.30
2023-04-15T12:34:08.767Z,33.00
2023-04-15T12:36:37.462Z,33.25
2023-04-15T12:39:06.273Z,32.81
2023-04-15T12:41:34.573Z,33.40
2023-04-15T12:44:02.704Z,33.49
2023-04-15T12:46:31.102Z,33.08
2023-04-15T12:48:59.378Z,33.23
2023-04-15T12:51:28.605Z,33.34
2023-04-15T12:53:56.435Z,33.13
2023-04-15T12:56:24.520Z,33.06
2023-04-15T12:58:52.477Z,33.66
2023-04-15T13:01:20.353Z,33.55
2023-04-15T13:03:48.383Z,33.27
2023-04-15T13:06:16.641Z,33.71
2023-04-15T13:08:57.499Z,33.59
2023-04-15T13:11:26.004Z,33.71
2023-04-15T13:13:53.933Z,33.63
2023-04-15T13:16:21.960Z,33.76
2023-04-15T13:18:49.922Z,33.75
2023-04-15T13:21:19.419Z,33.52
2023-04-15T13:23:49.751Z,33.55
2023-04-15T13:26:17.689Z,34.02
2023-04-15T13:28:46.035Z,33.84
2023-04-15T13:31:13.998Z,34.03
2023-04-15T13:33:41.931Z,33.84
2023-04-15T13:36:10.471Z,34.03
2023-04-15T13:38:38.299Z,34.17
2023-04-15T13:41:07.695Z,33.81
2023-04-15T13:43:35.689Z,34.32
2023-04-15T13:46:03.895Z,33.81
2023-04-15T13:48:31.780Z,33.74
2023-04-15T13:50:59.616Z,33.88
2023-04-15T13:53:33.843Z,33.80
2023-04-15T13:56:09.066Z,33.82
2023-04-15T13:58:37.863Z,33.94
2023-04-15T14:01:07.393Z,33.89
2023-04-15T14:03:36.647Z,33.79
2023-04-15T14:06:05.716Z,34.17
2023-04-15T14:08:33.870Z,34.04
2023-04-15T14:11:02.074Z,34.03
2023-04-15T14:13:31.415Z,34.20
2023-04-15T14:15:59.346Z,34.85
2023-04-15T14:18:27.435Z,34.69
2023-04-15T14:20:55.592Z,34.31
2023-04-15T14:23:23.492Z,34.29
2023-04-15T14:25:51.892Z,34.21
2023-04-15T14:28:19.824Z,34.69
2023-04-15T14:30:49.136Z,34.33
2023-04-15T14:33:17.292Z,34.64
2023-04-15T14:35:45.139Z,34.74
2023-04-15T14:38:13.062Z,34.28
2023-04-15T14:40:42.770Z,34.30
2023-04-15T14:43:10.912Z,34.44
2023-04-15T14:45:40.690Z,34.48
2023-04-15T14:48:12.881Z,35.27
2023-04-15T14:50:41.312Z,34.92
2023-04-15T14:53:09.158Z,34.85
2023-04-15T14:55:36.960Z,34.69
2023-04-15T14:58:04.931Z,35.28
2023-04-15T15:00:32.765Z,35.16
2023-04-15T15:03:00.918Z,35.63
2023-04-15T15:05:30.172Z,35.68
2023-04-15T15:07:58.089Z,35.94
2023-04-15T15:10:38.627Z,35.79
2023-04-15T15:13:14.056Z,35.64
2023-04-15T15:15:42.087Z,35.43
2023-04-15T15:18:10.047Z,35.55
2023-04-15T15:20:39.278Z,35.74
2023-04-15T15:23:07.188Z,35.56
2023-04-15T15:25:35.044Z,35.71
2023-04-15T15:28:03.060Z,35.64
2023-04-15T15:30:31.188Z,36.12
2023-04-15T15:32:59.059Z,35.97
2023-04-15T15:35:27.778Z,36.10
2023-04-15T15:37:57.091Z,36.11
2023-04-15T15:40:28.511Z,36.93
2023-04-15T15:42:56.393Z,36.38
2023-04-15T15:45:24.235Z,36.17
2023-04-15T15:47:52.707Z,36.70
2023-04-15T15:50:21.645Z,36.32
2023-04-15T15:52:49.621Z,36.52
2023-04-15T15:55:18.917Z,36.70
2023-04-15T15:57:46.729Z,36.54
2023-04-15T16:00:15.587Z,37.10
2023-04-15T16:05:15.982Z,37.19
2023-04-15T16:07:43.846Z,36.82
2023-04-15T16:10:13.963Z,36.96
2023-04-15T16:12:43.223Z,37.08
2023-04-15T16:15:12.017Z,37.29
2023-04-15T16:17:40.037Z,37.00
2023-04-15T16:20:08.943Z,37.51
2023-04-15T16:22:37.069Z,37.12
2023-04-15T16:25:05.082Z,37.53
2023-04-15T16:27:33.805Z,37.43
2023-04-15T16:30:04.501Z,37.14
2023-04-15T16:32:32.381Z,37.65
2023-04-15T16:35:00.167Z,37.74
2023-04-15T16:37:27.998Z,37.36
2023-04-15T16:39:55.853Z,37.28
2023-04-15T16:42:23.727Z,37.41
2023-04-15T16:44:51.557Z,37.22
2023-04-15T16:47:20.685Z,37.26
2023-04-15T16:49:48.740Z,37.12
2023-04-15T16:52:16.455Z,37.54
2023-04-15T16:54:44.223Z,37.17
2023-04-15T16:57:11.990Z,37.17
2023-04-15T16:59:39.840Z,37.45
2023-04-15T17:02:10.707Z,37.72
2023-04-15T17:04:40.321Z,37.71
2023-04-15T17:07:08.825Z,37.28
2023-04-15T17:09:36.727Z,37.65
2023-04-15T17:12:05.218Z,37.57
2023-04-15T17:14:33.285Z,37.43
2023-04-15T17:17:01.355Z,37.82
2023-04-15T17:19:29.194Z,37.29
2023-04-15T17:21:58.517Z,37.45
2023-04-15T17:24:26.518Z,37.86
2023-04-15T17:26:54.675Z,37.64
2023-04-15T17:29:22.566Z,37.90
2023-04-15T17:31:50.419Z,37.50
2023-04-15T17:34:18.359Z,37.50
2023-04-15T17:36:46.222Z,37.52
2023-04-15T17:39:15.558Z,38.06
2023-04-15T17:41:43.367Z,38.00
2023-04-15T17:44:11.242Z,37.57
2023-04-15T17:46:39.116Z,37.70
2023-04-15T17:49:07.223Z,37.57
2023-04-15T17:51:35.233Z,38.29
2023-04-15T17:54:09.465Z,37.82
2023-04-15T17:56:38.658Z,38.38
2023-04-15T17:59:06.962Z,37.97
2023-04-15T18:01:34.947Z,38.50
2023-04-15T18:04:03.034Z,38.26
2023-04-15T18:06:31.829Z,38.02
2023-04-15T18:08:59.832Z,38.50
2023-04-15T18:11:27.714Z,38.35
2023-04-15T18:13:56.909Z,38.94
2023-04-15T18:16:24.943Z,38.94
2023-04-15T18:18:52.769Z,38.72
2023-04-15T18:21:20.642Z,38.53
2023-04-15T18:23:48.614Z,39.06
2023-04-15T18:26:16.471Z,39.31
2023-04-15T18:28:44.340Z,39.28
2023-04-15T18:31:13.587Z,39.42
2023-04-15T18:33:41.482Z,39.40
2023-04-15T18:36:09.355Z,39.59
2023-04-15T18:38:37.160Z,39.36
2023-04-15T18:41:05.429Z,39.61
2023-04-15T18:43:33.305Z,39.50
2023-04-15T18:46:01.870Z,39.62
2023-04-15T18:48:31.301Z,39.92
2023-04-15T18:50:59.156Z,40.03
2023-04-15T18:53:27.998Z,39.90
2023-04-15T18:55:56.274Z,39.93
2023-04-15T18:58:24.138Z,40.17
2023-04-15T19:00:51.991Z,40.20
2023-04-15T19:03:19.835Z,40.17
2023-04-15T19:05:49.084Z,40.81
2023-04-15T19:08:17.012Z,40.35
2023-04-15T19:10:45.212Z,40.93
2023-04-15T19:13:13.115Z,40.71
2023-04-15T19:15:40.997Z,41.01
2023-04-15T19:18:10.632Z,40.67
2023-04-15T19:20:40.109Z,40.66
2023-04-15T19:23:09.668Z,41.13
2023-04-15T19:25:38.174Z,41.28
2023-04-15T19:28:06.368Z,40.78
2023-04-15T19:30:34.591Z,41.17
2023-04-15T19:33:02.412Z,41.31
2023-04-15T19:35:30.257Z,40.90
2023-04-15T19:37:58.092Z,41.16
2023-04-15T19:40:27.376Z,41.02
2023-04-15T19:42:55.370Z,41.32
2023-04-15T19:45:23.357Z,41.34
2023-04-15T19:47:51.325Z,41.19
2023-04-15T19:50:24.584Z,41.07
2023-04-15T19:52:52.634Z,41.52
2023-04-15T19:55:20.962Z,41.32
2023-04-15T19:57:50.371Z,41.28
2023-04-15T20:00:18.173Z,41.85
2023-04-15T20:02:46.069Z,41.47
2023-04-15T20:05:14.074Z,41.79
2023-04-15T20:07:43.209Z,41.56
2023-04-15T20:10:13.207Z,41.06
2023-04-15T20:12:50.108Z,41.09
2023-04-15T20:15:23.527Z,41.23
2023-04-15T20:17:51.741Z,41.21
2023-04-15T20:20:20.199Z,41.57
2023-04-15T20:22:48.374Z,41.80
2023-04-15T20:25:16.477Z,41.71
2023-04-15T20:27:44.338Z,41.68
2023-04-15T20:30:12.686Z,41.48
2023-04-15T20:32:42.025Z,41.56
2023-04-15T20:35:10.140Z,42.09
2023-04-15T20:37:40.361Z,41.74
2023-04-15T20:40:09.495Z,41.85
2023-04-15T20:42:37.870Z,42.07
2023-04-15T20:45:07.113Z,42.07
2023-04-15T20:47:34.968Z,41.93
2023-04-15T20:50:04.387Z,42.00
2023-04-15T20:52:32.203Z,41.95
2023-04-15T20:55:30.618Z,43.36
2023-04-15T20:57:59.853Z,41.81
2023-04-15T21:00:29.659Z,42.51
2023-04-15T21:03:01.353Z,42.64
2023-04-15T21:05:46.767Z,43.28
2023-04-15T21:08:21.197Z,42.06
2023-04-15T21:10:49.839Z,41.87
2023-04-15T21:13:22.194Z,42.24
2023-04-15T21:15:54.433Z,42.31
2023-04-15T21:18:23.111Z,41.85
2023-04-15T21:20:59.349Z,42.43
2023-04-15T21:23:28.725Z,41.97
2023-04-15T21:25:56.740Z,42.28
2023-04-15T21:28:24.805Z,42.11
2023-04-15T21:30:53.077Z,42.26
2023-04-15T21:33:21.298Z,42.09
2023-04-15T21:35:59.995Z,42.22
2023-04-15T21:38:30.231Z,42.18
2023-04-15T21:40:58.238Z,42.14
2023-04-15T21:43:26.691Z,42.52
2023-04-15T21:46:23.613Z,42.55
2023-04-15T21:48:42.896Z,42.82
2023-04-15T21:51:13.914Z,42.27
2023-04-15T21:53:44.956Z,42.79
2023-04-15T21:56:16.725Z,42.71
2023-04-15T21:58:44.762Z,42.49
2023-04-15T22:01:12.822Z,42.29
2023-04-15T22:03:41.030Z,42.29
2023-04-15T22:06:09.301Z,42.27
2023-04-15T22:08:48.287Z,42.46
2023-04-15T22:11:27.905Z,42.97
2023-04-15T22:13:56.709Z,42.53
2023-04-15T22:16:25.561Z,42.81
2023-04-15T22:18:53.483Z,42.81
2023-04-15T22:21:21.556Z,42.92
2023-04-15T22:23:50.206Z,42.87
2023-04-15T22:26:18.074Z,42.52
2023-04-15T22:28:47.423Z,42.82
2023-04-15T22:31:15.446Z,42.62
2023-04-15T22:33:43.704Z,42.59
2023-04-15T22:36:11.854Z,43.04
2023-04-15T22:38:40.117Z,42.56
2023-04-15T22:41:10.153Z,42.81
2023-04-15T22:43:38.094Z,43.12
2023-04-15T22:46:07.359Z,42.62
2023-04-15T22:48:35.610Z,42.98
2023-04-15T22:51:04.753Z,42.57
2023-04-15T22:53:32.965Z,42.79
2023-04-15T22:56:00.825Z,42.58
2023-04-15T22:58:28.711Z,43.08
2023-04-15T23:00:56.477Z,43.13
2023-04-15T23:03:26.009Z,42.92
2023-04-15T23:05:54.212Z,42.83
2023-04-15T23:08:23.885Z,43.29
2023-04-15T23:10:51.790Z,42.60
2023-04-15T23:13:19.713Z,42.58
2023-04-15T23:15:47.690Z,43.18
2023-04-15T23:18:15.572Z,43.10
2023-04-15T23:20:44.722Z,42.76
2023-04-15T23:23:12.657Z,43.11
2023-04-15T23:25:40.981Z,42.80
2023-04-15T23:28:08.988Z,43.20
2023-04-15T23:30:36.850Z,43.01
2023-04-15T23:33:05.696Z,42.99
2023-04-15T23:35:33.714Z,43.10
2023-04-15T23:38:03.027Z,43.07
2023-04-15T23:40:31.070Z,43.02
2023-04-15T23:42:58.985Z,43.35
2023-04-15T23:45:26.891Z,43.30
2023-04-15T23:47:54.763Z,43.14
2023-04-15T23:50:22.649Z,42.77
2023-04-15T23:52:50.434Z,43.43
2023-04-15T23:55:19.635Z,43.24
2023-04-15T23:57:48.100Z,43.11
